Metar z pełnej godziny Komunikat METAR ze strony awiacja.imgw.pl Metar G00 EPBY METAR EPBY 241900Z 19005KT CAVOK 16/07 Q1011 =